createdAt,value
2022-12-08T00:00:46.533Z,9.90
2022-12-08T00:03:13.276Z,10.90
2022-12-08T00:06:03.393Z,10.82
2022-12-08T00:08:48.098Z,10.40
2022-12-08T00:11:15.224Z,11.98
2022-12-08T00:13:41.597Z,10.82
2022-12-08T00:16:08.023Z,11.05
2022-12-08T00:18:34.432Z,11.35
2022-12-08T00:21:00.797Z,11.68
2022-12-08T00:23:27.325Z,11.68
2022-12-08T00:25:53.850Z,11.50
2022-12-08T00:28:20.181Z,11.65
2022-12-08T00:30:46.738Z,12.32
2022-12-08T00:33:13.258Z,12.68
2022-12-08T00:35:43.043Z,11.75
2022-12-08T00:38:09.792Z,13.18
2022-12-08T00:40:36.263Z,13.15
2022-12-08T00:43:02.598Z,13.05
2022-12-08T00:45:28.984Z,13.00
2022-12-08T00:47:55.392Z,13.43
2022-12-08T00:50:21.794Z,13.70
2022-12-08T00:52:48.320Z,12.80
2022-12-08T00:55:14.929Z,12.57
2022-12-08T00:57:41.472Z,13.35
2022-12-08T01:00:08.215Z,14.32
2022-12-08T01:02:35.154Z,13.30
2022-12-08T01:05:01.635Z,13.45
2022-12-08T01:07:28.017Z,13.75
2022-12-08T01:09:54.353Z,14.80
2022-12-08T01:12:20.686Z,14.68
2022-12-08T01:14:47.058Z,15.02
2022-12-08T01:17:13.397Z,15.18
2022-12-08T01:19:39.817Z,15.25
2022-12-08T01:22:06.157Z,15.45
2022-12-08T01:24:33.171Z,16.40
2022-12-08T01:26:59.523Z,16.08
2022-12-08T01:29:26.860Z,16.83
2022-12-08T01:31:53.307Z,17.02
2022-12-08T01:34:19.620Z,17.35
2022-12-08T01:36:45.996Z,16.00
2022-12-08T01:39:17.102Z,17.63
2022-12-08T01:41:44.216Z,16.70
2022-12-08T01:44:13.252Z,16.73
2022-12-08T01:46:41.761Z,16.63
2022-12-08T01:49:15.034Z,15.52
2022-12-08T01:51:48.948Z,16.15
2022-12-08T01:56:48.559Z,16.63
2022-12-08T01:59:15.214Z,17.58
2022-12-08T02:01:41.602Z,17.77
2022-12-08T02:04:09.731Z,18.85
2022-12-08T02:06:39.757Z,19.80
2022-12-08T02:09:06.635Z,19.77
2022-12-08T02:11:32.975Z,18.15
2022-12-08T02:13:59.952Z,19.52
2022-12-08T02:16:34.421Z,19.30
2022-12-08T02:22:06.611Z,18.45
2022-12-08T02:27:33.612Z,18.60
2022-12-08T02:30:19.253Z,19.45
2022-12-08T02:33:10.259Z,20.02
2022-12-08T02:35:50.686Z,19.08
2022-12-08T02:38:46.473Z,19.08
2022-12-08T02:41:38.398Z,20.10
2022-12-08T02:44:21.827Z,19.98
2022-12-08T02:47:14.316Z,18.27
2022-12-08T02:49:40.655Z,19.17
2022-12-08T02:52:29.286Z,19.33
2022-12-08T02:54:57.785Z,19.75
2022-12-08T02:57:42.318Z,20.77
2022-12-08T03:00:15.606Z,20.40
2022-12-08T03:03:00.421Z,19.15
2022-12-08T03:05:42.309Z,19.92
2022-12-08T03:08:22.855Z,20.10
2022-12-08T03:11:06.588Z,20.17
2022-12-08T03:13:45.585Z,20.95
2022-12-08T03:16:15.831Z,18.88
2022-12-08T03:18:47.414Z,19.45
2022-12-08T03:21:15.527Z,21.02
2022-12-08T03:23:44.357Z,20.20
2022-12-08T03:26:18.906Z,18.92
2022-12-08T03:28:45.589Z,19.25
2022-12-08T03:31:13.183Z,20.05
2022-12-08T03:33:41.679Z,19.35
2022-12-08T03:36:09.398Z,20.25
2022-12-08T03:38:41.068Z,20.33
2022-12-08T03:41:19.562Z,20.60
2022-12-08T03:43:49.800Z,19.98
2022-12-08T03:46:17.185Z,20.90
2022-12-08T03:48:43.722Z,19.98
2022-12-08T03:51:10.426Z,20.35
2022-12-08T03:53:36.950Z,20.25
2022-12-08T03:56:05.751Z,19.48
2022-12-08T03:58:37.213Z,21.00
2022-12-08T04:01:03.953Z,22.35
2022-12-08T04:03:30.294Z,22.58
2022-12-08T04:05:56.699Z,19.52
2022-12-08T04:08:23.112Z,22.02
2022-12-08T04:10:49.468Z,20.38
2022-12-08T04:13:15.903Z,19.67
2022-12-08T04:15:48.347Z,21.52
2022-12-08T04:18:15.605Z,19.98
2022-12-08T04:20:43.150Z,20.42
2022-12-08T04:23:12.076Z,21.20
2022-12-08T04:25:38.726Z,20.75
2022-12-08T04:28:05.332Z,21.52
2022-12-08T04:30:32.256Z,20.38
2022-12-08T04:32:58.828Z,20.27
2022-12-08T04:35:25.523Z,19.73
2022-12-08T04:37:51.918Z,21.58
2022-12-08T04:40:18.594Z,21.48
2022-12-08T04:42:44.997Z,21.25
2022-12-08T04:45:11.557Z,22.67
2022-12-08T04:47:37.913Z,21.13
2022-12-08T04:50:05.490Z,20.90
2022-12-08T04:52:32.212Z,20.52
2022-12-08T04:54:58.575Z,20.33
2022-12-08T04:57:24.950Z,21.55
2022-12-08T04:59:51.298Z,20.67
2022-12-08T05:02:17.823Z,21.00
2022-12-08T05:04:44.420Z,23.42
2022-12-08T05:07:10.826Z,20.52
2022-12-08T05:09:37.233Z,21.05
2022-12-08T05:12:04.306Z,28.00
2022-12-08T05:14:30.711Z,21.25
2022-12-08T05:16:57.073Z,24.98
2022-12-08T05:19:23.517Z,27.17
2022-12-08T05:21:49.839Z,32.05
2022-12-08T05:24:16.501Z,21.73
2022-12-08T05:26:42.907Z,21.02
2022-12-08T05:29:09.294Z,21.30
2022-12-08T05:31:35.666Z,24.02
2022-12-08T05:34:03.390Z,29.92
2022-12-08T05:36:29.984Z,30.40
2022-12-08T05:38:57.700Z,23.33
2022-12-08T05:41:24.510Z,25.92
2022-12-08T05:43:50.932Z,22.85
2022-12-08T05:46:17.840Z,23.92
2022-12-08T05:48:44.347Z,23.30
2022-12-08T05:51:22.190Z,20.92
2022-12-08T05:53:49.743Z,20.35
2022-12-08T05:56:16.911Z,19.77
2022-12-08T05:58:43.266Z,20.10
2022-12-08T06:01:24.485Z,20.27
2022-12-08T06:03:51.753Z,19.02
2022-12-08T06:06:18.476Z,19.73
2022-12-08T06:08:44.841Z,23.17
2022-12-08T06:11:24.045Z,22.40
2022-12-08T06:13:50.836Z,22.98
2022-12-08T06:16:17.925Z,19.17
2022-12-08T06:18:47.033Z,18.30
2022-12-08T06:21:14.756Z,16.20
2022-12-08T06:23:41.200Z,17.10
2022-12-08T06:26:10.770Z,17.67
2022-12-08T06:28:37.949Z,17.17
2022-12-08T06:31:09.607Z,15.32
2022-12-08T06:33:36.634Z,15.50
2022-12-08T06:36:03.449Z,15.75
2022-12-08T06:38:30.247Z,15.75
2022-12-08T06:40:57.757Z,14.48
2022-12-08T06:43:24.321Z,15.90
2022-12-08T06:45:50.715Z,15.63
2022-12-08T06:48:17.822Z,16.83
2022-12-08T06:50:44.290Z,19.40
2022-12-08T06:53:15.000Z,17.95
2022-12-08T06:55:59.467Z,15.13
2022-12-08T06:58:26.214Z,14.27
2022-12-08T07:00:52.869Z,13.57
2022-12-08T07:03:19.368Z,14.90
2022-12-08T07:05:45.770Z,17.00
2022-12-08T07:08:12.497Z,14.45
2022-12-08T07:10:39.076Z,14.18
2022-12-08T07:13:05.472Z,13.60
2022-12-08T07:15:31.854Z,14.23
2022-12-08T07:18:00.382Z,14.13
2022-12-08T07:20:26.953Z,14.35
2022-12-08T07:22:53.912Z,14.15
2022-12-08T07:25:20.519Z,13.57
2022-12-08T07:27:47.153Z,14.65
2022-12-08T07:30:14.060Z,13.55
2022-12-08T07:32:40.475Z,13.70
2022-12-08T07:35:07.569Z,14.10
2022-12-08T07:37:34.950Z,13.40
2022-12-08T07:40:01.522Z,14.23
2022-12-08T07:42:28.054Z,13.70
2022-12-08T07:44:54.475Z,13.75
2022-12-08T07:47:20.800Z,15.27
2022-12-08T07:49:47.112Z,14.02
2022-12-08T07:52:13.479Z,15.93
2022-12-08T07:54:39.889Z,15.52
2022-12-08T07:57:06.446Z,15.80
2022-12-08T07:59:33.044Z,14.35
2022-12-08T08:02:22.382Z,16.98
2022-12-08T08:04:50.089Z,13.52
2022-12-08T08:07:16.528Z,14.25
2022-12-08T08:09:42.891Z,13.70
2022-12-08T08:12:30.104Z,14.32
2022-12-08T08:14:56.289Z,14.35
2022-12-08T08:17:22.782Z,14.85
2022-12-08T08:19:49.237Z,14.13
2022-12-08T08:22:15.569Z,14.20
2022-12-08T08:24:45.055Z,15.10
2022-12-08T08:27:11.767Z,14.38
2022-12-08T08:29:38.097Z,14.63
2022-12-08T08:32:04.474Z,15.15
2022-12-08T08:34:31.006Z,15.68
2022-12-08T08:36:57.474Z,15.13
2022-12-08T08:39:23.998Z,15.80
2022-12-08T08:41:50.390Z,14.88
2022-12-08T08:44:16.993Z,15.25
2022-12-08T08:46:43.400Z,16.25
2022-12-08T08:49:09.840Z,15.82
2022-12-08T08:51:36.377Z,15.07
2022-12-08T08:54:02.902Z,14.35
2022-12-08T08:56:29.250Z,16.60
2022-12-08T08:58:55.663Z,21.15
2022-12-08T09:01:25.047Z,14.18
2022-12-08T09:03:51.896Z,15.02
2022-12-08T09:06:18.560Z,13.85
2022-12-08T09:08:46.418Z,14.38
2022-12-08T09:11:13.450Z,13.63
2022-12-08T09:13:39.886Z,13.27
2022-12-08T09:16:07.767Z,13.93
2022-12-08T09:18:34.806Z,14.70
2022-12-08T09:21:10.204Z,14.25
2022-12-08T09:23:36.652Z,13.85
2022-12-08T09:26:04.936Z,15.20
2022-12-08T09:28:31.895Z,16.35
2022-12-08T09:30:58.372Z,15.95
2022-12-08T09:33:24.747Z,15.95
2022-12-08T09:35:51.077Z,17.13
2022-12-08T09:38:17.429Z,15.48
2022-12-08T09:40:51.216Z,16.50
2022-12-08T09:43:43.025Z,15.43
2022-12-08T09:46:10.638Z,14.45
2022-12-08T09:48:40.494Z,14.70
2022-12-08T09:51:08.560Z,15.75
2022-12-08T09:53:37.761Z,16.30
2022-12-08T09:56:13.661Z,16.30
2022-12-08T09:58:58.788Z,15.38
2022-12-08T10:01:30.085Z,15.85
2022-12-08T10:03:56.660Z,15.40
2022-12-08T10:06:31.920Z,14.70
2022-12-08T10:09:23.131Z,15.98
2022-12-08T10:11:49.460Z,15.25
2022-12-08T10:14:25.492Z,14.80
2022-12-08T10:16:55.012Z,14.70
2022-12-08T10:19:23.936Z,16.75
2022-12-08T10:21:50.730Z,14.70
2022-12-08T10:24:37.100Z,13.68
2022-12-08T10:27:04.145Z,13.82
2022-12-08T10:29:30.452Z,13.85
2022-12-08T10:31:58.978Z,14.50
2022-12-08T10:34:26.080Z,14.50
2022-12-08T10:36:56.289Z,15.02
2022-12-08T10:39:45.822Z,12.73
2022-12-08T10:42:15.003Z,12.90
2022-12-08T10:45:10.424Z,13.02
2022-12-08T10:47:44.868Z,12.02
2022-12-08T10:50:20.767Z,12.13
2022-12-08T10:52:55.861Z,12.07
2022-12-08T10:55:22.462Z,11.13
2022-12-08T10:57:49.142Z,11.70
2022-12-08T11:00:20.619Z,10.82
2022-12-08T11:02:52.694Z,9.30
2022-12-08T11:05:20.562Z,10.52
2022-12-08T11:07:50.107Z,7.88
2022-12-08T11:10:20.925Z,7.38
2022-12-08T11:12:49.372Z,8.43
2022-12-08T11:15:17.357Z,7.30
2022-12-08T11:17:45.836Z,7.88
2022-12-08T11:20:14.918Z,6.80
2022-12-08T11:22:43.259Z,6.43
2022-12-08T11:25:24.798Z,6.55
2022-12-08T11:27:57.333Z,5.45
2022-12-08T11:30:25.737Z,6.03
2022-12-08T11:33:24.022Z,5.80
2022-12-08T11:35:54.821Z,5.50
2022-12-08T11:38:23.775Z,5.65
2022-12-08T11:41:01.040Z,5.82
2022-12-08T11:43:31.135Z,5.55
2022-12-08T11:46:02.150Z,5.53
2022-12-08T11:48:43.090Z,6.53
2022-12-08T11:51:16.916Z,6.63
2022-12-08T11:53:57.702Z,6.13
2022-12-08T11:56:29.885Z,8.80
2022-12-08T11:58:58.531Z,9.60
2022-12-08T12:01:26.425Z,7.97
2022-12-08T12:04:22.286Z,6.25
2022-12-08T12:07:26.135Z,7.15
2022-12-08T12:10:02.644Z,7.47
2022-12-08T12:12:39.746Z,7.03
2022-12-08T12:15:12.748Z,6.20
2022-12-08T12:18:08.068Z,8.88
2022-12-08T12:20:42.421Z,5.65
2022-12-08T12:23:31.385Z,5.50
2022-12-08T12:26:03.401Z,5.75
2022-12-08T12:28:40.530Z,5.70
2022-12-08T12:31:10.172Z,5.57
2022-12-08T12:33:37.077Z,5.63
2022-12-08T12:36:06.560Z,5.55
2022-12-08T12:38:55.267Z,5.15
2022-12-08T12:41:34.800Z,6.00
2022-12-08T12:44:13.393Z,5.50
2022-12-08T12:46:50.078Z,5.28
2022-12-08T12:49:38.072Z,5.18
2022-12-08T12:52:16.543Z,5.43
2022-12-08T12:55:03.671Z,6.18
2022-12-08T12:57:40.309Z,5.45
2022-12-08T13:00:10.030Z,4.85
2022-12-08T13:02:36.793Z,4.75
2022-12-08T13:05:26.346Z,6.10
2022-12-08T13:07:59.489Z,5.07
2022-12-08T13:10:39.886Z,5.60
2022-12-08T13:13:12.619Z,6.47
2022-12-08T13:16:12.881Z,6.43
2022-12-08T13:18:49.951Z,5.00
2022-12-08T13:21:20.038Z,5.80
2022-12-08T13:24:14.307Z,5.60
2022-12-08T13:26:48.930Z,6.25
2022-12-08T13:29:26.233Z,5.57
2022-12-08T13:32:09.778Z,4.28
2022-12-08T13:34:51.913Z,4.38
2022-12-08T13:37:42.188Z,4.80
2022-12-08T13:40:18.339Z,4.00
2022-12-08T13:43:01.904Z,3.90
2022-12-08T13:46:10.916Z,4.30
2022-12-08T13:55:49.758Z,4.85
2022-12-08T13:57:35.386Z,5.30
2022-12-08T14:00:07.284Z,5.10
2022-12-08T14:02:39.595Z,4.93
2022-12-08T14:05:18.135Z,6.88
2022-12-08T14:07:47.468Z,5.13
2022-12-08T14:10:18.768Z,4.80
2022-12-08T14:12:47.252Z,5.47
2022-12-08T14:15:15.450Z,5.18
2022-12-08T14:17:50.747Z,6.47
2022-12-08T14:20:27.939Z,8.77
2022-12-08T14:22:54.709Z,4.90
2022-12-08T14:25:22.109Z,4.45
2022-12-08T14:27:49.788Z,4.82
2022-12-08T14:30:26.073Z,4.30
2022-12-08T14:32:55.817Z,4.07
2022-12-08T14:35:30.016Z,4.55
2022-12-08T14:37:58.908Z,4.05
2022-12-08T14:40:30.878Z,4.50
2022-12-08T14:43:09.333Z,4.75
2022-12-08T14:45:44.755Z,4.18
2022-12-08T14:48:26.682Z,4.70
2022-12-08T14:51:07.926Z,4.25
2022-12-08T14:53:38.128Z,4.60
2022-12-08T14:56:40.425Z,4.53
2022-12-08T14:59:20.176Z,4.63
2022-12-08T15:01:47.588Z,5.63
2022-12-08T15:04:14.545Z,6.40
2022-12-08T15:06:53.669Z,4.80
2022-12-08T15:09:40.942Z,4.93
2022-12-08T15:12:27.068Z,4.63
2022-12-08T15:15:02.048Z,3.92
2022-12-08T15:17:40.111Z,3.63
2022-12-08T15:20:33.126Z,3.10
2022-12-08T15:23:01.518Z,3.13
2022-12-08T15:25:27.902Z,3.50
2022-12-08T15:27:56.303Z,3.30
2022-12-08T15:30:22.700Z,3.22
2022-12-08T15:32:52.090Z,3.17
2022-12-08T15:35:18.432Z,3.58
2022-12-08T15:37:44.796Z,4.40
2022-12-08T15:40:20.154Z,4.32
2022-12-08T15:42:46.810Z,3.67
2022-12-08T15:45:14.089Z,3.58
2022-12-08T15:47:41.748Z,3.33
2022-12-08T15:50:16.288Z,4.18
2022-12-08T15:52:42.830Z,4.72
2022-12-08T15:55:13.609Z,4.45
2022-12-08T16:00:51.755Z,6.38
2022-12-08T16:07:26.869Z,5.93
2022-12-08T16:09:11.837Z,6.65
2022-12-08T16:12:09.371Z,5.70
2022-12-08T16:17:23.656Z,19.38
2022-12-08T16:19:50.079Z,10.18
2022-12-08T16:22:51.685Z,7.20
2022-12-08T16:25:17.813Z,7.22
2022-12-08T16:28:12.289Z,7.13
2022-12-08T16:30:32.330Z,7.20
2022-12-08T16:32:58.690Z,7.57
2022-12-08T16:35:25.054Z,8.65
2022-12-08T16:37:51.504Z,7.93
2022-12-08T16:40:17.988Z,7.60
2022-12-08T16:42:44.432Z,8.95
2022-12-08T16:45:15.121Z,7.93
2022-12-08T16:47:43.501Z,9.20
2022-12-08T16:50:12.580Z,10.77
2022-12-08T16:52:39.026Z,9.00
2022-12-08T16:55:12.974Z,10.27
2022-12-08T17:00:08.684Z,13.68
2022-12-08T17:02:35.147Z,11.63
2022-12-08T17:05:01.571Z,9.55
2022-12-08T17:07:28.037Z,11.52
2022-12-08T17:09:54.475Z,10.07
2022-12-08T17:12:20.846Z,9.13
2022-12-08T17:14:47.212Z,10.93
2022-12-08T17:17:13.573Z,10.57
2022-12-08T17:19:40.014Z,11.20
2022-12-08T17:22:06.464Z,9.38
2022-12-08T17:24:32.804Z,9.68
2022-12-08T17:27:03.931Z,8.45
2022-12-08T17:29:31.453Z,7.75
2022-12-08T17:31:58.505Z,6.70
2022-12-08T17:34:24.894Z,7.20
2022-12-08T17:36:51.807Z,7.82
2022-12-08T17:39:19.249Z,7.40
2022-12-08T17:41:46.311Z,8.70
2022-12-08T17:44:15.342Z,8.40
2022-12-08T17:46:46.395Z,8.13
2022-12-08T17:49:20.011Z,7.95
2022-12-08T17:51:52.545Z,6.85
2022-12-08T17:54:19.087Z,5.43
2022-12-08T17:56:46.134Z,7.03
2022-12-08T17:59:13.849Z,8.10
2022-12-08T18:01:40.715Z,8.70
2022-12-08T18:04:08.702Z,7.85
2022-12-08T18:06:36.112Z,8.63
2022-12-08T18:09:03.205Z,7.43
2022-12-08T18:11:30.109Z,7.18
2022-12-08T18:13:56.814Z,6.85
2022-12-08T18:16:25.536Z,7.60
2022-12-08T18:18:51.942Z,7.60
2022-12-08T18:21:23.402Z,7.32
2022-12-08T18:23:50.511Z,6.88
2022-12-08T18:26:16.945Z,7.38
2022-12-08T18:28:43.721Z,9.00
2022-12-08T18:31:11.962Z,10.20
2022-12-08T18:33:40.162Z,11.30
2022-12-08T18:36:11.676Z,11.40
2022-12-08T18:38:38.889Z,13.52
2022-12-08T18:41:10.529Z,12.70
2022-12-08T18:43:37.488Z,13.82
2022-12-08T18:46:07.530Z,12.43
2022-12-08T18:48:35.861Z,11.45
2022-12-08T18:51:02.833Z,12.13
2022-12-08T18:53:30.013Z,11.88
2022-12-08T18:55:56.376Z,11.98
2022-12-08T18:58:22.799Z,13.07
2022-12-08T19:00:49.120Z,12.18
2022-12-08T19:03:15.531Z,14.02
2022-12-08T19:05:41.914Z,13.32
2022-12-08T19:08:08.288Z,11.70
2022-12-08T19:10:37.925Z,11.00
2022-12-08T19:13:06.105Z,10.35
2022-12-08T19:15:34.223Z,10.70
2022-12-08T19:18:00.875Z,9.77
2022-12-08T19:20:27.554Z,15.05
2022-12-08T19:22:54.548Z,15.00
2022-12-08T19:25:21.916Z,13.57
2022-12-08T19:27:48.315Z,12.25
2022-12-08T19:30:14.992Z,14.40
2022-12-08T19:32:41.372Z,16.73
2022-12-08T19:35:08.072Z,14.32
2022-12-08T19:37:34.911Z,14.15
2022-12-08T19:40:19.624Z,13.32
2022-12-08T19:43:04.428Z,14.77
2022-12-08T19:45:30.810Z,13.77
2022-12-08T19:47:57.240Z,13.35
2022-12-08T19:50:38.877Z,13.23
2022-12-08T19:53:07.372Z,11.50
2022-12-08T19:55:34.105Z,12.38
2022-12-08T19:58:01.787Z,13.45
2022-12-08T20:00:30.411Z,11.68
2022-12-08T20:02:59.750Z,11.95
2022-12-08T20:05:26.164Z,10.68
2022-12-08T20:07:55.531Z,10.90
2022-12-08T20:10:31.979Z,11.07
2022-12-08T20:13:16.810Z,11.02
2022-12-08T20:15:43.862Z,10.82
2022-12-08T20:18:11.491Z,9.70
2022-12-08T20:20:38.069Z,11.35
2022-12-08T20:23:04.530Z,11.30
2022-12-08T20:25:30.914Z,11.43
2022-12-08T20:27:57.326Z,10.88
2022-12-08T20:30:23.696Z,10.93
2022-12-08T20:32:50.088Z,11.77
2022-12-08T20:35:16.481Z,10.95
2022-12-08T20:37:42.956Z,10.70
2022-12-08T20:40:09.652Z,10.90
2022-12-08T20:42:36.072Z,10.48
2022-12-08T20:45:05.305Z,10.95
2022-12-08T20:47:32.119Z,10.68
2022-12-08T20:49:58.538Z,10.52
2022-12-08T20:52:24.905Z,10.38
2022-12-08T20:54:51.317Z,11.13
2022-12-08T20:57:17.756Z,11.40
2022-12-08T20:59:44.133Z,11.00
2022-12-08T21:02:11.172Z,10.00
2022-12-08T21:04:37.737Z,10.15
2022-12-08T21:07:04.573Z,11.13
2022-12-08T21:09:31.073Z,11.85
2022-12-08T21:11:57.536Z,11.50
2022-12-08T21:14:24.113Z,9.93
2022-12-08T21:16:50.901Z,10.15
2022-12-08T21:19:19.788Z,9.63
2022-12-08T21:21:46.187Z,10.68
2022-12-08T21:24:12.970Z,11.93
2022-12-08T21:26:39.445Z,10.60
2022-12-08T21:29:06.008Z,11.02
2022-12-08T21:31:33.626Z,11.27
2022-12-08T21:34:01.506Z,11.45
2022-12-08T21:36:28.333Z,9.75
2022-12-08T21:38:55.005Z,10.15
2022-12-08T21:41:41.641Z,10.25
2022-12-08T21:44:10.335Z,11.10
2022-12-08T21:46:36.827Z,11.18
2022-12-08T21:49:03.839Z,9.23
2022-12-08T21:51:30.516Z,10.00
2022-12-08T21:53:57.004Z,10.52
2022-12-08T21:56:23.524Z,11.15
2022-12-08T21:58:50.096Z,10.57
2022-12-08T22:01:16.608Z,10.38
2022-12-08T22:03:43.146Z,10.82
2022-12-08T22:06:12.265Z,11.43
2022-12-08T22:08:38.900Z,10.57
2022-12-08T22:11:06.440Z,10.75
2022-12-08T22:13:37.373Z,10.82
2022-12-08T22:16:06.669Z,11.48
2022-12-08T22:18:34.433Z,11.13
2022-12-08T22:21:01.226Z,12.10
2022-12-08T22:23:28.386Z,12.45
2022-12-08T22:26:02.543Z,12.30
2022-12-08T22:28:31.931Z,11.38
2022-12-08T22:31:02.400Z,11.10
2022-12-08T22:33:29.762Z,11.88
2022-12-08T22:35:57.958Z,13.43
2022-12-08T22:38:24.607Z,12.15
2022-12-08T22:40:54.304Z,13.07
2022-12-08T22:43:21.462Z,12.00
2022-12-08T22:45:48.253Z,12.40
2022-12-08T22:48:15.159Z,11.93
2022-12-08T22:50:41.782Z,13.20
2022-12-08T22:53:10.337Z,12.77
2022-12-08T22:55:41.837Z,13.25
2022-12-08T22:58:08.201Z,12.48
2022-12-08T23:00:34.774Z,11.90
2022-12-08T23:03:01.186Z,13.23
2022-12-08T23:05:27.776Z,12.95
2022-12-08T23:07:54.434Z,14.05
2022-12-08T23:10:20.979Z,13.00
2022-12-08T23:12:47.588Z,13.68
2022-12-08T23:15:13.999Z,12.75
2022-12-08T23:17:40.531Z,14.63
2022-12-08T23:20:08.119Z,12.05
2022-12-08T23:22:34.737Z,13.57
2022-12-08T23:25:01.089Z,13.70
2022-12-08T23:27:27.499Z,13.35
2022-12-08T23:29:53.867Z,14.07
2022-12-08T23:32:20.392Z,12.57
2022-12-08T23:34:46.928Z,11.88
2022-12-08T23:37:13.435Z,13.32
2022-12-08T23:39:39.764Z,12.60
2022-12-08T23:42:06.299Z,12.73
2022-12-08T23:44:32.676Z,12.40
2022-12-08T23:46:59.352Z,11.73
2022-12-08T23:49:25.776Z,12.52
2022-12-08T23:51:52.106Z,11.40
2022-12-08T23:54:18.493Z,13.05
2022-12-08T23:56:44.841Z,14.18
2022-12-08T23:59:11.247Z,12.88
